createdAt,value
2019-04-27T00:03:15.776Z,99.10
2019-04-27T00:11:20.823Z,99.40
2019-04-27T00:13:48.545Z,99.70
2019-04-27T00:24:41.284Z,99.40
2019-04-27T00:27:13.252Z,99.50
2019-04-27T00:29:40.953Z,99.40
2019-04-27T00:32:13.284Z,99.30
2019-04-27T00:37:31.512Z,99.40
2019-04-27T00:40:14.766Z,99.70
2019-04-27T00:42:46.118Z,99.50
2019-04-27T00:45:16.518Z,99.90
2019-04-27T00:47:56.450Z,99.90
2019-04-27T00:50:18.032Z,99.90
2019-04-27T00:55:16.840Z,99.80
2019-04-27T01:03:18.463Z,99.70
2019-04-27T01:05:48.630Z,99.60
2019-04-27T01:08:16.261Z,99.70
2019-04-27T01:10:46.448Z,99.80
2019-04-27T01:15:44.699Z,99.90
2019-04-27T01:18:15.614Z,99.70
2019-04-27T01:20:43.492Z,99.60
2019-04-27T01:23:13.563Z,99.60
2019-04-27T01:31:06.283Z,99.80
2019-04-27T01:33:36.412Z,99.70
2019-04-27T01:36:04.066Z,99.80
2019-04-27T01:38:34.175Z,99.90
2019-04-27T01:41:04.682Z,99.90
2019-04-27T01:43:34.881Z,99.90
2019-04-27T01:46:05.141Z,99.90
2019-04-27T01:48:35.328Z,99.90
2019-04-27T01:51:05.907Z,99.90
2019-04-27T01:53:35.078Z,99.90
2019-04-27T01:56:04.576Z,99.90
2019-04-27T01:58:34.938Z,99.90
2019-04-27T02:01:28.824Z,99.90
2019-04-27T02:04:19.459Z,99.90
2019-04-27T02:06:51.641Z,99.90
2019-04-27T02:09:19.329Z,99.90
2019-04-27T02:11:49.922Z,99.90
2019-04-27T02:14:20.120Z,99.90
2019-04-27T02:19:36.981Z,99.90
2019-04-27T02:22:08.588Z,99.90
2019-04-27T02:24:39.281Z,99.90
2019-04-27T02:27:09.470Z,99.90
2019-04-27T02:29:59.180Z,99.90
2019-04-27T02:32:42.599Z,99.90
2019-04-27T02:35:15.152Z,99.90
2019-04-27T02:37:46.219Z,99.90
2019-04-27T02:40:42.380Z,99.90
2019-04-27T02:43:13.445Z,99.90
2019-04-27T02:45:43.485Z,99.90
2019-04-27T02:48:14.588Z,99.90
2019-04-27T02:50:46.685Z,99.90
2019-04-27T02:53:19.506Z,99.90
2019-04-27T02:55:49.971Z,99.90
2019-04-27T02:58:22.204Z,99.90
2019-04-27T03:00:52.305Z,99.90
2019-04-27T03:03:22.683Z,99.90
2019-04-27T03:05:52.886Z,99.90
2019-04-27T03:08:23.233Z,99.90
2019-04-27T03:10:53.512Z,99.90
2019-04-27T03:13:30.542Z,99.90
2019-04-27T03:16:13.400Z,99.90
2019-04-27T03:18:50.782Z,99.90
2019-04-27T03:21:24.693Z,99.90
2019-04-27T03:23:54.844Z,99.90
2019-04-27T03:26:43.979Z,99.90
2019-04-27T03:29:15.254Z,99.90
2019-04-27T03:31:53.455Z,99.90
2019-04-27T03:34:22.321Z,99.90
2019-04-27T03:36:51.619Z,99.90
2019-04-27T03:39:21.980Z,99.90
2019-04-27T03:41:52.874Z,99.90
2019-04-27T03:44:23.274Z,99.90
2019-04-27T03:46:53.483Z,99.90
2019-04-27T03:49:34.714Z,99.90
2019-04-27T03:52:11.968Z,99.90
2019-04-27T03:54:44.909Z,99.90
2019-04-27T03:57:20.459Z,99.90
2019-04-27T04:00:10.265Z,99.90
2019-04-27T04:02:40.703Z,99.90
2019-04-27T04:05:11.196Z,99.90
2019-04-27T04:07:41.420Z,99.90
2019-04-27T04:10:11.937Z,99.90
2019-04-27T04:12:56.881Z,99.90
2019-04-27T04:15:46.019Z,99.90
2019-04-27T04:18:26.450Z,99.90
2019-04-27T04:20:56.618Z,99.90
2019-04-27T04:23:26.646Z,99.90
2019-04-27T04:25:56.746Z,99.90
2019-04-27T04:28:26.774Z,99.90
2019-04-27T04:30:56.823Z,99.90
2019-04-27T04:33:26.919Z,99.90
2019-04-27T04:35:59.587Z,99.90
2019-04-27T04:38:30.442Z,99.90
2019-04-27T04:41:04.608Z,99.90
2019-04-27T04:43:42.708Z,99.30
2019-04-27T04:46:31.887Z,98.70
2019-04-27T04:49:02.028Z,98.40
2019-04-27T04:51:32.199Z,98.00
2019-04-27T04:54:02.461Z,97.90
2019-04-27T04:56:32.614Z,97.70
2019-04-27T04:59:02.798Z,97.40
2019-04-27T05:01:32.994Z,97.30
2019-04-27T05:04:04.059Z,97.00
2019-04-27T05:06:34.154Z,96.90
2019-04-27T05:09:04.953Z,96.70
2019-04-27T05:11:35.243Z,96.70
2019-04-27T05:14:05.312Z,96.70
2019-04-27T05:16:36.430Z,96.50
2019-04-27T05:19:06.650Z,96.20
2019-04-27T05:21:38.800Z,96.40
2019-04-27T05:24:09.554Z,96.20
2019-04-27T05:26:39.867Z,96.20
2019-04-27T05:29:10.946Z,96.30
2019-04-27T05:31:41.081Z,96.00
2019-04-27T05:34:11.258Z,96.40
2019-04-27T05:36:48.379Z,96.10
2019-04-27T05:39:13.395Z,95.90
2019-04-27T05:41:43.618Z,96.10
2019-04-27T05:44:32.788Z,95.70
2019-04-27T05:47:00.442Z,95.80
2019-04-27T05:55:06.746Z,96.00
2019-04-27T05:57:38.939Z,95.90
2019-04-27T06:00:06.331Z,96.10
2019-04-27T06:02:39.733Z,96.20
2019-04-27T06:07:36.945Z,96.20
2019-04-27T06:10:09.592Z,96.20
2019-04-27T06:12:37.457Z,96.40
2019-04-27T06:15:09.778Z,96.30
2019-04-27T06:17:38.728Z,96.30
2019-04-27T06:20:10.283Z,96.20
2019-04-27T06:22:40.577Z,96.00
2019-04-27T06:25:14.359Z,96.20
2019-04-27T06:30:13.166Z,96.00
2019-04-27T06:32:43.348Z,96.00
2019-04-27T06:35:12.457Z,95.90
2019-04-27T06:37:43.649Z,95.90
2019-04-27T06:42:44.171Z,96.10
2019-04-27T06:45:16.231Z,95.70
2019-04-27T06:50:13.259Z,95.60
2019-04-27T06:52:43.310Z,95.60
2019-04-27T06:55:10.999Z,95.60
2019-04-27T06:57:41.200Z,95.30
2019-04-27T07:00:09.173Z,95.60
2019-04-27T07:02:39.347Z,95.30
2019-04-27T07:05:09.637Z,95.50
2019-04-27T07:07:39.345Z,95.80
2019-04-27T07:10:10.713Z,95.60
2019-04-27T07:12:40.897Z,95.10
2019-04-27T07:15:15.445Z,95.10
2019-04-27T07:20:13.365Z,95.00
2019-04-27T07:22:43.571Z,94.70
2019-04-27T07:25:11.225Z,94.90
2019-04-27T07:27:41.436Z,94.90
2019-04-27T07:30:12.095Z,94.50
2019-04-27T07:32:39.882Z,94.40
2019-04-27T07:35:10.153Z,94.60
2019-04-27T07:37:39.291Z,94.70
2019-04-27T07:40:10.687Z,95.00
2019-04-27T07:42:42.455Z,95.10
2019-04-27T07:45:11.323Z,94.70
2019-04-27T07:47:43.905Z,94.60
2019-04-27T07:50:11.576Z,94.70
2019-04-27T07:52:41.719Z,94.50
2019-04-27T07:55:11.887Z,94.30
2019-04-27T07:57:40.032Z,94.40
2019-04-27T08:00:10.880Z,94.60
2019-04-27T08:05:09.604Z,94.80
2019-04-27T08:07:39.717Z,94.30
2019-04-27T08:10:09.484Z,94.30
2019-04-27T08:12:39.280Z,94.40
2019-04-27T08:17:44.107Z,94.60
2019-04-27T08:20:14.544Z,94.70
2019-04-27T08:22:42.717Z,94.70
2019-04-27T08:25:13.820Z,94.90
2019-04-27T08:27:41.621Z,95.10
2019-04-27T08:30:29.504Z,95.30
2019-04-27T08:32:59.244Z,95.00
2019-04-27T08:35:32.625Z,94.80
2019-04-27T08:40:29.300Z,94.20
2019-04-27T08:42:59.513Z,94.30
2019-04-27T08:45:29.098Z,93.90
2019-04-27T08:47:59.632Z,93.50
2019-04-27T08:50:28.612Z,93.70
2019-04-27T08:53:00.683Z,93.80
2019-04-27T08:55:31.937Z,93.40
2019-04-27T08:58:01.223Z,93.20
2019-04-27T09:00:33.063Z,93.20
2019-04-27T09:03:01.747Z,93.20
2019-04-27T09:05:31.093Z,93.50
2019-04-27T09:08:20.190Z,93.80
2019-04-27T09:10:55.346Z,94.00
2019-04-27T09:13:31.305Z,94.00
2019-04-27T09:18:32.534Z,94.10
2019-04-27T09:21:03.538Z,94.30
2019-04-27T09:23:31.228Z,94.50
2019-04-27T09:26:01.302Z,94.60
2019-04-27T09:28:33.531Z,94.60
2019-04-27T09:31:03.800Z,94.50
2019-04-27T09:36:06.118Z,94.60
2019-04-27T09:38:38.275Z,94.50
2019-04-27T09:41:07.736Z,94.20
2019-04-27T09:43:37.933Z,94.10
2019-04-27T09:48:37.141Z,94.00
2019-04-27T09:51:07.455Z,93.80
2019-04-27T09:53:36.817Z,93.90
2019-04-27T09:56:07.009Z,93.90
2019-04-27T09:58:36.641Z,93.90
2019-04-27T10:01:06.707Z,93.90
2019-04-27T10:06:06.644Z,94.00
2019-04-27T10:08:36.851Z,94.20
2019-04-27T10:11:05.983Z,94.20
2019-04-27T10:13:36.499Z,94.40
2019-04-27T10:16:06.862Z,94.50
2019-04-27T10:18:37.079Z,94.80
2019-04-27T10:21:07.492Z,94.10
2019-04-27T10:26:06.003Z,94.10
2019-04-27T10:28:37.242Z,94.30
2019-04-27T10:33:35.908Z,94.50
2019-04-27T10:38:33.102Z,93.80
2019-04-27T10:41:03.456Z,93.90
2019-04-27T10:43:31.208Z,94.00
2019-04-27T10:46:01.342Z,94.20
2019-04-27T10:48:31.649Z,94.20
2019-04-27T10:50:59.311Z,94.30
2019-04-27T10:53:29.484Z,94.20
2019-04-27T10:58:28.160Z,94.00
2019-04-27T11:01:00.047Z,93.90
2019-04-27T11:03:27.780Z,94.20
2019-04-27T11:08:43.521Z,94.00
2019-04-27T11:11:13.673Z,94.20
2019-04-27T11:13:41.420Z,94.30
2019-04-27T11:16:11.589Z,94.40
2019-04-27T11:18:41.820Z,94.50
2019-04-27T11:21:11.280Z,94.70
2019-04-27T11:23:41.250Z,94.70
2019-04-27T11:28:39.265Z,94.60
2019-04-27T11:31:09.381Z,94.40
2019-04-27T11:38:56.592Z,94.30
2019-04-27T11:41:26.787Z,94.20
2019-04-27T11:43:56.627Z,94.30
2019-04-27T11:46:26.809Z,94.40
2019-04-27T11:48:58.063Z,94.60
2019-04-27T11:51:26.734Z,94.30
2019-04-27T11:56:27.424Z,94.40
2019-04-27T11:58:57.290Z,94.40
2019-04-27T12:01:26.935Z,94.10
2019-04-27T12:03:56.885Z,94.10
2019-04-27T12:08:55.961Z,94.10
2019-04-27T12:11:26.206Z,94.10
2019-04-27T12:13:53.998Z,93.90
2019-04-27T12:16:25.819Z,93.90
2019-04-27T12:18:56.339Z,93.90
2019-04-27T12:21:26.917Z,93.80
2019-04-27T12:23:56.968Z,94.00
2019-04-27T12:26:25.949Z,94.00
2019-04-27T12:28:56.735Z,94.20
2019-04-27T12:34:07.488Z,94.20
2019-04-27T12:39:11.845Z,94.30
2019-04-27T12:41:43.512Z,94.40
2019-04-27T12:44:13.205Z,94.50
2019-04-27T12:46:43.475Z,94.50
2019-04-27T12:49:12.013Z,94.60
2019-04-27T12:51:43.043Z,95.00
2019-04-27T12:54:32.847Z,95.00
2019-04-27T12:57:22.700Z,95.00
2019-04-27T13:02:31.384Z,95.10
2019-04-27T13:07:31.421Z,95.60
2019-04-27T13:10:01.711Z,95.50
2019-04-27T13:12:29.765Z,95.50
2019-04-27T13:15:00.164Z,95.50
2019-04-27T13:17:31.776Z,95.50
2019-04-27T13:20:06.294Z,95.70
2019-04-27T13:22:36.920Z,95.80
2019-04-27T13:25:07.660Z,95.70
2019-04-27T13:27:39.867Z,96.10
2019-04-27T13:30:11.134Z,95.80
2019-04-27T13:32:47.361Z,95.80
2019-04-27T13:35:17.060Z,95.90
2019-04-27T13:37:47.403Z,95.90
2019-04-27T13:40:17.097Z,96.00
2019-04-27T13:48:41.301Z,96.50
2019-04-27T13:51:14.520Z,97.00
2019-04-27T13:53:45.606Z,97.00
2019-04-27T13:56:13.456Z,97.30
2019-04-27T13:58:48.060Z,97.70
2019-04-27T14:01:15.761Z,98.00
2019-04-27T14:03:46.181Z,98.30
2019-04-27T14:06:17.368Z,98.40
2019-04-27T14:08:45.182Z,98.60
2019-04-27T14:11:15.324Z,98.70
2019-04-27T14:16:15.295Z,99.10
2019-04-27T14:18:45.471Z,99.20
2019-04-27T14:21:13.109Z,99.30
2019-04-27T14:23:43.374Z,99.30
2019-04-27T14:26:15.828Z,99.40
2019-04-27T14:28:46.162Z,99.40
2019-04-27T14:31:16.334Z,99.60
2019-04-27T14:33:48.269Z,99.60
2019-04-27T14:38:47.951Z,99.90
2019-04-27T14:41:19.271Z,99.90
2019-04-27T14:46:18.733Z,99.90
2019-04-27T14:51:16.636Z,99.70
2019-04-27T14:53:48.885Z,99.90
2019-04-27T14:56:18.178Z,99.80
2019-04-27T14:58:49.526Z,99.90
2019-04-27T15:03:48.383Z,99.90
2019-04-27T15:06:19.782Z,99.90
2019-04-27T15:08:49.207Z,99.80
2019-04-27T15:11:19.546Z,99.70
2019-04-27T15:16:18.071Z,99.60
2019-04-27T15:18:54.963Z,99.50
2019-04-27T15:21:25.601Z,99.60
2019-04-27T15:26:24.523Z,99.60
2019-04-27T15:28:56.862Z,99.60
2019-04-27T15:31:27.066Z,99.60
2019-04-27T15:42:28.312Z,99.40
2019-04-27T15:47:25.578Z,99.40
2019-04-27T15:49:55.815Z,99.30
2019-04-27T15:52:25.602Z,99.30
2019-04-27T15:54:58.170Z,99.20
2019-04-27T15:59:58.463Z,99.20
2019-04-27T16:05:23.471Z,99.50
2019-04-27T16:07:51.843Z,99.60
2019-04-27T16:10:21.956Z,99.60
2019-04-27T16:15:19.996Z,99.60
2019-04-27T16:17:53.486Z,99.50
2019-04-27T16:20:29.192Z,99.40
2019-04-27T16:22:56.783Z,99.40
2019-04-27T16:25:27.422Z,99.50
2019-04-27T16:27:55.489Z,99.60
2019-04-27T16:30:24.703Z,99.60
2019-04-27T16:32:54.007Z,99.60
2019-04-27T16:35:24.174Z,99.50
2019-04-27T16:37:56.360Z,99.50
2019-04-27T16:40:25.703Z,99.60
2019-04-27T16:42:54.521Z,99.40
2019-04-27T16:45:27.171Z,99.40
2019-04-27T16:50:27.301Z,99.40
2019-04-27T16:53:00.932Z,99.40
2019-04-27T16:55:35.341Z,99.40
2019-04-27T16:58:09.772Z,99.50
2019-04-27T17:00:35.110Z,99.60
2019-04-27T17:03:06.793Z,99.50
2019-04-27T17:05:34.902Z,99.40
2019-04-27T17:08:05.100Z,99.40
2019-04-27T17:10:35.297Z,99.40
2019-04-27T17:18:33.375Z,99.30
2019-04-27T17:21:15.805Z,99.40
2019-04-27T17:23:33.988Z,99.40
2019-04-27T17:26:06.239Z,99.40
2019-04-27T17:28:41.524Z,99.40
2019-04-27T17:31:12.877Z,99.30
2019-04-27T17:33:49.907Z,99.40
2019-04-27T17:38:50.967Z,99.40
2019-04-27T17:41:20.909Z,99.70
2019-04-27T17:43:48.764Z,99.40
2019-04-27T17:46:21.790Z,99.50
2019-04-27T17:51:18.855Z,99.60
2019-04-27T17:53:50.174Z,99.60
2019-04-27T17:56:18.516Z,99.60
2019-04-27T17:58:48.841Z,99.70
2019-04-27T18:03:58.479Z,99.70
2019-04-27T18:06:20.498Z,99.70
2019-04-27T18:08:48.777Z,99.70
2019-04-27T18:11:23.978Z,99.80
2019-04-27T18:16:30.896Z,99.80
2019-04-27T18:21:38.547Z,99.70
2019-04-27T18:24:08.645Z,99.70
2019-04-27T18:26:51.990Z,99.70
2019-04-27T18:29:18.433Z,99.80
2019-04-27T18:31:54.533Z,99.70
2019-04-27T18:36:52.728Z,99.90
2019-04-27T18:39:22.081Z,99.80
2019-04-27T18:41:54.243Z,99.70
2019-04-27T18:44:24.002Z,99.70
2019-04-27T18:46:58.895Z,99.60
2019-04-27T18:49:45.182Z,99.50
2019-04-27T18:55:03.292Z,99.40
2019-04-27T19:00:03.710Z,99.30
2019-04-27T19:02:35.508Z,99.40
2019-04-27T19:05:03.252Z,99.30
2019-04-27T19:07:34.989Z,99.30
2019-04-27T19:12:34.271Z,99.30
2019-04-27T19:15:05.079Z,99.40
2019-04-27T19:17:42.506Z,99.40
2019-04-27T19:20:15.056Z,99.30
2019-04-27T19:22:45.230Z,99.60
2019-04-27T19:25:25.459Z,99.40
2019-04-27T19:28:10.992Z,99.40
2019-04-27T19:33:10.852Z,99.40
2019-04-27T19:38:09.394Z,99.50
2019-04-27T19:40:39.621Z,99.50
2019-04-27T19:43:07.352Z,99.60
2019-04-27T19:45:38.831Z,99.60
2019-04-27T19:48:10.583Z,99.60
2019-04-27T19:50:40.163Z,99.60
2019-04-27T19:53:11.342Z,99.70
2019-04-27T19:55:40.598Z,99.60
2019-04-27T19:58:10.755Z,99.60
2019-04-27T20:03:24.123Z,99.60
2019-04-27T20:08:24.060Z,99.60
2019-04-27T20:13:22.754Z,99.50
2019-04-27T20:15:52.909Z,99.40
2019-04-27T20:18:20.938Z,99.50
2019-04-27T20:20:51.139Z,99.50
2019-04-27T20:23:22.435Z,99.50
2019-04-27T20:25:50.296Z,99.80
2019-04-27T20:28:20.658Z,99.50
2019-04-27T20:30:51.732Z,99.50
2019-04-27T20:33:21.969Z,99.50
2019-04-27T20:36:24.594Z,99.50
2019-04-27T20:38:52.320Z,99.50
2019-04-27T20:41:22.449Z,99.50
2019-04-27T20:46:22.782Z,99.60
2019-04-27T20:48:53.020Z,99.60
2019-04-27T20:51:21.285Z,99.50
2019-04-27T20:53:55.016Z,99.60
2019-04-27T20:56:22.686Z,99.70
2019-04-27T20:58:52.728Z,99.60
2019-04-27T21:01:22.900Z,99.50
2019-04-27T21:03:51.183Z,99.50
2019-04-27T21:09:15.901Z,99.50
2019-04-27T21:14:13.106Z,99.60
2019-04-27T21:16:43.480Z,99.60
2019-04-27T21:19:11.148Z,99.60
2019-04-27T21:21:42.779Z,99.70
2019-04-27T21:24:15.055Z,99.60
2019-04-27T21:26:46.142Z,99.70
2019-04-27T21:31:46.069Z,99.70
2019-04-27T21:34:16.159Z,99.70
2019-04-27T21:39:13.228Z,99.80
2019-04-27T21:41:44.960Z,99.80
2019-04-27T21:44:14.247Z,99.80
2019-04-27T21:46:44.376Z,99.80
2019-04-27T21:54:32.721Z,99.90
2019-04-27T21:57:03.351Z,99.90
2019-04-27T21:59:31.165Z,99.90
2019-04-27T22:02:02.452Z,99.90
2019-04-27T22:07:02.286Z,99.90
2019-04-27T22:09:33.996Z,99.90
2019-04-27T22:14:31.117Z,99.90
2019-04-27T22:19:31.062Z,99.90
2019-04-27T22:22:03.097Z,99.90
2019-04-27T22:27:00.154Z,99.90
2019-04-27T22:29:31.976Z,99.90
2019-04-27T22:32:01.726Z,99.90
2019-04-27T22:34:31.877Z,99.90
2019-04-27T22:39:43.137Z,99.90
2019-04-27T22:42:12.132Z,99.90
2019-04-27T22:44:48.529Z,99.90
2019-04-27T22:49:45.545Z,99.90
2019-04-27T22:54:44.125Z,99.90
2019-04-27T22:57:33.209Z,99.90
2019-04-27T23:00:22.434Z,99.90
2019-04-27T23:02:56.009Z,99.90
2019-04-27T23:05:23.800Z,99.90
2019-04-27T23:07:54.313Z,99.90
2019-04-27T23:10:25.560Z,99.90
2019-04-27T23:12:54.803Z,99.90
2019-04-27T23:15:28.773Z,99.90
2019-04-27T23:17:58.639Z,99.90
2019-04-27T23:20:28.707Z,99.90
2019-04-27T23:25:27.159Z,99.90
2019-04-27T23:27:57.322Z,99.90
2019-04-27T23:30:25.079Z,99.90
2019-04-27T23:32:55.198Z,99.90
2019-04-27T23:35:25.195Z,99.90
2019-04-27T23:37:53.020Z,99.90
2019-04-27T23:40:23.199Z,99.90
2019-04-27T23:45:22.511Z,99.90
2019-04-27T23:47:52.720Z,99.90
2019-04-27T23:50:21.903Z,99.90
2019-04-27T23:55:41.923Z,99.90
2019-04-27T23:58:11.687Z,99.90
